createdAt,value
2017-08-26T00:00:42.211Z,19.40
2017-08-26T00:03:10.528Z,19.40
2017-08-26T00:05:38.863Z,19.40
2017-08-26T00:08:07.182Z,19.40
2017-08-26T00:10:35.529Z,19.30
2017-08-26T00:13:03.846Z,19.30
2017-08-26T00:15:32.199Z,19.40
2017-08-26T00:18:00.517Z,19.40
2017-08-26T00:20:28.865Z,19.40
2017-08-26T00:22:57.376Z,19.40
2017-08-26T00:25:25.696Z,19.40
2017-08-26T00:27:54.029Z,19.40
2017-08-26T00:30:22.344Z,19.50
2017-08-26T00:32:50.683Z,19.50
2017-08-26T00:35:18.999Z,19.50
2017-08-26T00:37:47.359Z,19.40
2017-08-26T00:40:15.687Z,19.40
2017-08-26T00:42:43.999Z,19.40
2017-08-26T00:45:12.357Z,19.40
2017-08-26T00:47:40.675Z,19.30
2017-08-26T00:50:09.007Z,19.30
2017-08-26T00:52:37.326Z,19.30
2017-08-26T00:55:05.663Z,19.30
2017-08-26T00:57:33.984Z,19.30
2017-08-26T01:00:02.330Z,19.30
2017-08-26T01:02:30.643Z,19.30
2017-08-26T01:04:58.956Z,19.30
2017-08-26T01:07:33.000Z,19.40
2017-08-26T01:10:02.208Z,19.30
2017-08-26T01:12:30.551Z,19.30
2017-08-26T01:14:58.859Z,19.30
2017-08-26T01:17:27.196Z,19.30
2017-08-26T01:19:55.514Z,19.30
2017-08-26T01:22:23.851Z,19.30
2017-08-26T01:24:52.167Z,19.30
2017-08-26T01:27:20.483Z,19.30
2017-08-26T01:29:48.827Z,19.30
2017-08-26T01:32:17.139Z,19.30
2017-08-26T01:34:45.478Z,19.30
2017-08-26T01:37:13.787Z,19.30
2017-08-26T01:39:42.130Z,19.30
2017-08-26T01:42:10.442Z,19.30
2017-08-26T01:44:38.789Z,19.30
2017-08-26T01:47:07.108Z,19.30
2017-08-26T01:49:35.424Z,19.20
2017-08-26T01:52:03.767Z,19.30
2017-08-26T01:54:32.089Z,19.30
2017-08-26T01:57:00.426Z,19.30
2017-08-26T01:59:28.743Z,19.30
2017-08-26T02:01:57.087Z,19.30
2017-08-26T02:04:25.404Z,19.30
2017-08-26T02:06:53.719Z,19.30
2017-08-26T02:09:22.052Z,19.30
2017-08-26T02:11:50.367Z,19.30
2017-08-26T02:14:18.715Z,19.20
2017-08-26T02:16:47.028Z,19.20
2017-08-26T02:19:15.365Z,19.30
2017-08-26T02:21:43.684Z,19.30
2017-08-26T02:24:12.035Z,19.30
2017-08-26T02:26:40.347Z,19.30
2017-08-26T02:29:08.669Z,19.30
2017-08-26T02:31:37.000Z,19.30
2017-08-26T02:34:05.323Z,19.30
2017-08-26T02:36:33.655Z,19.20
2017-08-26T02:39:01.968Z,19.20
2017-08-26T02:41:30.311Z,19.10
2017-08-26T02:43:58.647Z,19.10
2017-08-26T02:46:27.007Z,19.10
2017-08-26T02:48:55.319Z,19.10
2017-08-26T02:51:23.633Z,19.10
2017-08-26T02:53:52.024Z,19.10
2017-08-26T02:56:20.339Z,19.10
2017-08-26T02:58:48.676Z,19.20
2017-08-26T03:01:16.991Z,19.20
2017-08-26T03:03:45.331Z,19.20
2017-08-26T03:06:13.640Z,19.20
2017-08-26T03:08:42.004Z,19.20
2017-08-26T03:11:10.318Z,19.30
2017-08-26T03:13:38.635Z,19.30
2017-08-26T03:16:06.959Z,19.30
2017-08-26T03:18:35.283Z,19.30
2017-08-26T03:21:03.616Z,19.30
2017-08-26T03:23:31.932Z,19.30
2017-08-26T03:26:00.275Z,19.30
2017-08-26T03:28:28.588Z,19.30
2017-08-26T03:30:56.941Z,19.30
2017-08-26T03:33:25.252Z,19.30
2017-08-26T03:35:53.592Z,19.30
2017-08-26T03:38:21.923Z,19.30
2017-08-26T03:40:50.240Z,19.30
2017-08-26T03:43:18.569Z,19.20
2017-08-26T03:45:46.108Z,19.20
2017-08-26T03:48:14.450Z,19.20
2017-08-26T03:50:42.767Z,19.30
2017-08-26T03:53:11.116Z,19.20
2017-08-26T03:55:39.429Z,19.20
2017-08-26T03:58:07.739Z,19.20
2017-08-26T04:00:36.064Z,19.20
2017-08-26T04:03:04.375Z,19.20
2017-08-26T04:05:32.712Z,19.10
2017-08-26T04:08:01.027Z,19.10
2017-08-26T04:10:29.354Z,19.10
2017-08-26T04:12:57.673Z,19.00
2017-08-26T04:15:26.003Z,19.00
2017-08-26T04:17:54.318Z,19.00
2017-08-26T04:20:22.632Z,18.90
2017-08-26T04:22:50.987Z,18.90
2017-08-26T04:25:19.303Z,18.90
2017-08-26T04:27:47.639Z,18.90
2017-08-26T04:30:15.996Z,18.80
2017-08-26T04:32:44.324Z,18.80
2017-08-26T04:35:12.663Z,18.80
2017-08-26T04:37:41.019Z,18.70
2017-08-26T04:40:09.412Z,18.70
2017-08-26T04:42:37.728Z,18.60
2017-08-26T04:45:05.300Z,18.60
2017-08-26T04:47:33.613Z,18.60
2017-08-26T04:50:01.948Z,18.50
2017-08-26T04:52:30.279Z,18.50
2017-08-26T04:54:58.615Z,18.40
2017-08-26T04:57:26.931Z,18.40
2017-08-26T04:59:55.263Z,18.40
2017-08-26T05:02:23.584Z,18.50
2017-08-26T05:04:51.899Z,18.50
2017-08-26T05:07:20.241Z,18.50
2017-08-26T05:09:48.556Z,18.60
2017-08-26T05:12:16.891Z,18.60
2017-08-26T05:14:45.202Z,18.60
2017-08-26T05:17:13.535Z,18.60
2017-08-26T05:19:41.851Z,18.60
2017-08-26T05:22:10.163Z,18.70
2017-08-26T05:24:38.491Z,18.70
2017-08-26T05:27:06.815Z,18.70
2017-08-26T05:29:35.152Z,18.70
2017-08-26T05:32:03.458Z,18.70
2017-08-26T05:34:31.796Z,18.70
2017-08-26T05:37:00.111Z,18.80
2017-08-26T05:39:28.459Z,18.80
2017-08-26T05:41:56.769Z,18.90
2017-08-26T05:44:25.091Z,18.90
2017-08-26T05:46:53.440Z,18.90
2017-08-26T05:49:21.761Z,18.90
2017-08-26T05:51:50.094Z,19.00
2017-08-26T05:54:18.411Z,19.10
2017-08-26T05:56:46.735Z,19.20
2017-08-26T05:59:15.055Z,19.30
2017-08-26T06:01:43.404Z,19.40
2017-08-26T06:04:11.724Z,19.40
2017-08-26T06:06:40.052Z,19.40
2017-08-26T06:09:08.396Z,19.50
2017-08-26T06:11:36.708Z,19.50
2017-08-26T06:14:05.061Z,19.50
2017-08-26T06:16:33.380Z,19.60
2017-08-26T06:19:01.732Z,19.70
2017-08-26T06:21:30.063Z,19.70
2017-08-26T06:23:58.412Z,19.80
2017-08-26T06:26:26.727Z,19.80
2017-08-26T06:28:55.044Z,19.90
2017-08-26T06:31:23.405Z,19.90
2017-08-26T06:33:51.719Z,20.00
2017-08-26T06:36:20.060Z,20.20
2017-08-26T06:38:48.384Z,20.30
2017-08-26T06:41:16.751Z,20.40
2017-08-26T06:43:45.068Z,20.40
2017-08-26T06:46:13.416Z,20.50
2017-08-26T06:48:41.733Z,20.50
2017-08-26T06:51:10.051Z,20.60
2017-08-26T06:53:38.396Z,20.80
2017-08-26T06:56:06.713Z,20.90
2017-08-26T06:58:35.044Z,21.00
2017-08-26T07:01:03.363Z,21.10
2017-08-26T07:03:31.697Z,21.30
2017-08-26T07:06:00.012Z,21.40
2017-08-26T07:08:28.355Z,21.60
2017-08-26T07:10:55.908Z,21.50
2017-08-26T07:13:24.212Z,21.70
2017-08-26T07:15:52.548Z,21.70
2017-08-26T07:18:20.855Z,21.70
2017-08-26T07:20:48.426Z,21.70
2017-08-26T07:23:16.742Z,21.90
2017-08-26T07:25:45.080Z,22.00
2017-08-26T07:28:13.387Z,22.10
2017-08-26T07:30:41.739Z,22.30
2017-08-26T07:33:09.292Z,22.20
2017-08-26T07:35:37.611Z,22.60
2017-08-26T07:38:05.943Z,22.70
2017-08-26T07:40:34.256Z,22.90
2017-08-26T07:43:02.589Z,23.10
2017-08-26T07:45:30.902Z,23.20
2017-08-26T07:47:59.236Z,23.40
2017-08-26T07:50:27.554Z,23.40
2017-08-26T07:52:55.897Z,23.50
2017-08-26T07:55:24.208Z,23.50
2017-08-26T07:57:52.527Z,23.60
2017-08-26T08:00:20.858Z,23.60
2017-08-26T08:02:49.231Z,23.70
2017-08-26T08:05:17.568Z,23.70
2017-08-26T08:07:45.880Z,23.80
2017-08-26T08:10:14.217Z,23.90
2017-08-26T08:12:42.529Z,24.10
2017-08-26T08:15:10.868Z,24.20
2017-08-26T08:17:39.171Z,24.30
2017-08-26T08:20:07.489Z,24.30
2017-08-26T08:22:35.824Z,24.40
2017-08-26T08:25:04.144Z,24.60
2017-08-26T08:27:32.479Z,24.70
2017-08-26T08:30:00.788Z,24.70
2017-08-26T08:32:29.285Z,24.70
2017-08-26T08:34:57.753Z,24.90
2017-08-26T08:37:26.087Z,25.00
2017-08-26T08:39:54.412Z,25.00
2017-08-26T08:42:22.756Z,24.90
2017-08-26T08:44:51.063Z,24.90
2017-08-26T08:47:19.373Z,25.00
2017-08-26T08:49:47.699Z,25.20
2017-08-26T08:52:16.026Z,25.30
2017-08-26T08:54:44.363Z,25.50
2017-08-26T08:57:12.687Z,25.50
2017-08-26T08:59:41.032Z,25.60
2017-08-26T09:02:09.347Z,25.70
2017-08-26T09:04:37.687Z,25.90
2017-08-26T09:07:06.004Z,25.90
2017-08-26T09:09:34.366Z,26.00
2017-08-26T09:12:02.687Z,26.20
2017-08-26T09:14:31.009Z,26.40
2017-08-26T09:16:59.353Z,26.50
2017-08-26T09:19:27.683Z,26.60
2017-08-26T09:21:55.251Z,26.60
2017-08-26T09:24:23.565Z,26.90
2017-08-26T09:26:51.900Z,26.80
2017-08-26T09:29:19.457Z,26.80
2017-08-26T09:31:47.806Z,26.70
2017-08-26T09:34:16.126Z,26.70
2017-08-26T09:36:44.467Z,26.80
2017-08-26T09:39:12.784Z,26.80
2017-08-26T09:41:41.142Z,26.90
2017-08-26T09:44:09.458Z,26.90
2017-08-26T09:46:37.796Z,26.90
2017-08-26T09:49:06.126Z,27.00
2017-08-26T09:51:34.451Z,27.00
2017-08-26T09:54:02.801Z,27.00
2017-08-26T09:56:31.111Z,26.90
2017-08-26T09:58:59.452Z,26.80
2017-08-26T10:01:27.768Z,26.80
2017-08-26T10:03:56.132Z,26.80
2017-08-26T10:06:24.469Z,26.70
2017-08-26T10:08:52.832Z,26.60
2017-08-26T10:11:21.195Z,26.60
2017-08-26T10:13:49.533Z,26.60
2017-08-26T10:16:17.947Z,26.70
2017-08-26T10:18:46.261Z,26.80
2017-08-26T10:21:14.603Z,26.90
2017-08-26T10:23:42.910Z,27.00
2017-08-26T10:26:11.363Z,27.10
2017-08-26T10:28:39.680Z,27.10
2017-08-26T10:31:08.025Z,27.10
2017-08-26T10:33:36.343Z,27.30
2017-08-26T10:36:04.675Z,27.30
2017-08-26T10:38:32.992Z,27.40
2017-08-26T10:41:01.588Z,27.50
2017-08-26T10:43:29.910Z,27.70
2017-08-26T10:45:58.230Z,27.80
2017-08-26T10:48:26.573Z,27.90
2017-08-26T10:50:54.887Z,28.10
2017-08-26T10:53:23.317Z,28.40
2017-08-26T10:55:51.638Z,28.50
2017-08-26T10:58:19.979Z,28.60
2017-08-26T11:00:48.296Z,28.70
2017-08-26T11:03:16.636Z,28.80
2017-08-26T11:05:44.951Z,28.90
2017-08-26T11:08:13.387Z,28.90
2017-08-26T11:10:41.703Z,28.80
2017-08-26T11:13:10.052Z,28.90
2017-08-26T11:15:38.404Z,29.10
2017-08-26T11:18:06.784Z,29.10
2017-08-26T11:20:35.123Z,29.10
2017-08-26T11:23:03.448Z,29.20
2017-08-26T11:25:31.783Z,29.30
2017-08-26T11:28:00.097Z,29.60
2017-08-26T11:30:28.434Z,29.80
2017-08-26T11:32:56.753Z,29.50
2017-08-26T11:35:25.092Z,29.20
2017-08-26T11:37:53.490Z,29.10
2017-08-26T11:40:21.835Z,29.10
2017-08-26T11:42:50.147Z,29.20
2017-08-26T11:45:18.463Z,29.20
2017-08-26T11:47:46.799Z,28.90
2017-08-26T11:50:15.116Z,28.80
2017-08-26T11:52:43.448Z,28.50
2017-08-26T11:55:11.758Z,28.40
2017-08-26T11:57:40.095Z,28.50
2017-08-26T12:00:08.418Z,28.50
2017-08-26T12:02:36.750Z,28.50
2017-08-26T12:05:05.074Z,28.50
2017-08-26T12:07:33.424Z,28.70
2017-08-26T12:10:01.736Z,28.80
2017-08-26T12:12:30.084Z,28.90
2017-08-26T12:14:58.408Z,29.10
2017-08-26T12:17:26.725Z,29.40
2017-08-26T12:19:55.073Z,29.80
2017-08-26T12:22:23.392Z,30.00
2017-08-26T12:24:51.735Z,30.10
2017-08-26T12:27:20.049Z,30.20
2017-08-26T12:29:48.388Z,30.20
2017-08-26T12:32:16.700Z,30.20
2017-08-26T12:34:45.047Z,30.10
2017-08-26T12:37:13.431Z,30.10
2017-08-26T12:39:41.771Z,30.20
2017-08-26T12:42:09.320Z,30.20
2017-08-26T12:44:37.660Z,30.20
2017-08-26T12:47:05.980Z,30.30
2017-08-26T12:49:34.317Z,30.60
2017-08-26T12:52:02.630Z,30.70
2017-08-26T12:54:30.980Z,30.70
2017-08-26T12:56:59.301Z,30.40
2017-08-26T12:59:27.629Z,30.40
2017-08-26T13:01:55.968Z,30.50
2017-08-26T13:04:24.284Z,30.50
2017-08-26T13:06:52.623Z,30.70
2017-08-26T13:09:20.943Z,30.60
2017-08-26T13:11:49.279Z,30.40
2017-08-26T13:14:17.598Z,30.20
2017-08-26T13:16:45.947Z,29.80
2017-08-26T13:19:14.274Z,29.70
2017-08-26T13:21:42.620Z,29.90
2017-08-26T13:24:10.949Z,30.10
2017-08-26T13:26:39.275Z,30.10
2017-08-26T13:29:07.619Z,30.20
2017-08-26T13:31:35.936Z,30.40
2017-08-26T13:34:04.271Z,30.50
2017-08-26T13:36:32.583Z,30.50
2017-08-26T13:39:00.933Z,30.50
2017-08-26T13:41:29.252Z,30.10
2017-08-26T13:43:57.604Z,29.80
2017-08-26T13:46:25.927Z,29.80
2017-08-26T13:48:54.265Z,29.90
2017-08-26T13:51:22.589Z,30.20
2017-08-26T13:53:50.941Z,30.20
2017-08-26T13:56:19.265Z,30.40
2017-08-26T13:58:47.586Z,30.50
2017-08-26T14:01:15.927Z,30.50
2017-08-26T14:03:44.245Z,30.70
2017-08-26T14:06:12.592Z,31.10
2017-08-26T14:08:40.908Z,31.20
2017-08-26T14:11:09.239Z,30.90
2017-08-26T14:13:37.555Z,30.60
2017-08-26T14:16:05.896Z,30.20
2017-08-26T14:18:34.217Z,29.90
2017-08-26T14:21:02.560Z,29.60
2017-08-26T14:23:30.888Z,29.60
2017-08-26T14:25:59.235Z,29.70
2017-08-26T14:28:27.551Z,29.70
2017-08-26T14:30:55.870Z,29.70
2017-08-26T14:33:24.202Z,29.70
2017-08-26T14:35:52.522Z,29.60
2017-08-26T14:38:20.869Z,29.60
2017-08-26T14:40:49.200Z,29.50
2017-08-26T14:43:17.537Z,29.50
2017-08-26T14:45:45.855Z,29.40
2017-08-26T14:48:14.196Z,29.30
2017-08-26T14:50:42.519Z,29.30
2017-08-26T14:53:10.863Z,29.30
2017-08-26T14:55:39.175Z,29.30
2017-08-26T14:58:07.511Z,29.40
2017-08-26T15:00:35.822Z,29.50
2017-08-26T15:03:04.179Z,29.70
2017-08-26T15:05:32.501Z,29.90
2017-08-26T15:08:00.823Z,29.90
2017-08-26T15:10:29.165Z,29.90
2017-08-26T15:12:57.485Z,29.90
2017-08-26T15:15:25.864Z,29.80
2017-08-26T15:17:54.212Z,29.70
2017-08-26T15:20:21.816Z,29.60
2017-08-26T15:22:50.151Z,29.30
2017-08-26T15:25:18.495Z,29.10
2017-08-26T15:27:46.819Z,28.90
2017-08-26T15:30:15.184Z,28.80
2017-08-26T15:32:43.495Z,28.60
2017-08-26T15:35:11.812Z,28.60
2017-08-26T15:37:40.151Z,28.50
2017-08-26T15:40:08.471Z,28.40
2017-08-26T15:42:36.809Z,28.20
2017-08-26T15:45:05.124Z,28.00
2017-08-26T15:47:33.468Z,27.80
2017-08-26T15:50:01.787Z,27.60
2017-08-26T15:52:30.125Z,27.50
2017-08-26T15:54:58.446Z,27.60
2017-08-26T15:57:26.783Z,27.90
2017-08-26T15:59:55.099Z,28.30
2017-08-26T16:02:23.452Z,28.60
2017-08-26T16:04:51.771Z,28.60
2017-08-26T16:07:20.091Z,28.60
2017-08-26T16:09:48.427Z,28.40
2017-08-26T16:12:16.748Z,28.30
2017-08-26T16:14:45.097Z,28.20
2017-08-26T16:17:13.412Z,28.00
2017-08-26T16:19:41.755Z,27.90
2017-08-26T16:22:10.072Z,27.90
2017-08-26T16:24:38.407Z,28.10
2017-08-26T16:27:06.728Z,28.10
2017-08-26T16:29:35.073Z,28.10
2017-08-26T16:32:03.394Z,28.20
2017-08-26T16:34:31.751Z,28.10
2017-08-26T16:37:00.064Z,27.90
2017-08-26T16:39:28.375Z,27.60
2017-08-26T16:41:56.707Z,27.30
2017-08-26T16:44:25.016Z,27.00
2017-08-26T16:46:53.349Z,26.80
2017-08-26T16:49:21.673Z,26.70
2017-08-26T16:51:50.015Z,26.60
2017-08-26T16:54:18.335Z,26.50
2017-08-26T16:56:46.671Z,26.50
2017-08-26T16:59:15.011Z,26.50
2017-08-26T17:01:43.351Z,26.50
2017-08-26T17:04:11.674Z,26.50
2017-08-26T17:06:40.005Z,26.50
2017-08-26T17:09:07.585Z,26.40
2017-08-26T17:11:35.904Z,26.60
2017-08-26T17:14:04.248Z,26.70
2017-08-26T17:16:32.559Z,26.70
2017-08-26T17:19:00.898Z,26.70
2017-08-26T17:21:28.454Z,26.70
2017-08-26T17:23:56.796Z,26.40
2017-08-26T17:26:25.116Z,26.20
2017-08-26T17:28:53.455Z,25.90
2017-08-26T17:31:21.770Z,25.60
2017-08-26T17:33:50.123Z,25.40
2017-08-26T17:36:18.435Z,25.30
2017-08-26T17:38:46.748Z,25.10
2017-08-26T17:41:15.092Z,25.10
2017-08-26T17:43:43.408Z,25.10
2017-08-26T17:46:11.745Z,25.20
2017-08-26T17:48:40.068Z,25.10
2017-08-26T17:51:08.411Z,25.00
2017-08-26T17:53:36.737Z,24.90
2017-08-26T17:56:05.077Z,24.70
2017-08-26T17:58:33.395Z,24.50
2017-08-26T18:01:01.743Z,24.30
2017-08-26T18:03:30.059Z,24.10
2017-08-26T18:05:57.631Z,24.10
2017-08-26T18:08:25.941Z,23.80
2017-08-26T18:10:54.304Z,23.70
2017-08-26T18:13:22.621Z,23.60
2017-08-26T18:15:50.934Z,23.60
2017-08-26T18:18:19.272Z,23.50
2017-08-26T18:20:47.722Z,23.40
2017-08-26T18:23:16.328Z,23.40
2017-08-26T18:25:44.784Z,23.30
2017-08-26T18:28:13.464Z,23.30
2017-08-26T18:30:42.079Z,23.30
2017-08-26T18:33:10.487Z,23.20
2017-08-26T18:35:39.058Z,23.20
2017-08-26T18:38:07.663Z,23.10
2017-08-26T18:40:36.151Z,23.00
2017-08-26T18:43:04.739Z,23.00
2017-08-26T18:45:33.348Z,22.90
2017-08-26T18:48:02.036Z,22.80
2017-08-26T18:50:30.729Z,22.80
2017-08-26T18:52:59.111Z,22.80
2017-08-26T18:55:27.035Z,22.70
2017-08-26T18:57:55.452Z,22.70
2017-08-26T19:00:24.106Z,22.60
2017-08-26T19:02:52.423Z,22.50
2017-08-26T19:05:21.064Z,22.50
2017-08-26T19:07:49.657Z,22.40
2017-08-26T19:10:18.411Z,22.30
2017-08-26T19:12:47.111Z,22.30
2017-08-26T19:15:15.747Z,22.20
2017-08-26T19:17:44.646Z,22.10
2017-08-26T19:20:13.391Z,22.00
2017-08-26T19:22:42.667Z,21.90
2017-08-26T19:25:11.302Z,21.80
2017-08-26T19:27:41.233Z,21.70
2017-08-26T19:30:09.927Z,21.60
2017-08-26T19:32:38.435Z,21.50
2017-08-26T19:35:07.132Z,21.40
2017-08-26T19:37:35.864Z,21.40
2017-08-26T19:40:04.479Z,21.30
2017-08-26T19:42:32.922Z,21.20
2017-08-26T19:45:01.241Z,21.10
2017-08-26T19:47:29.690Z,21.00
2017-08-26T19:49:58.479Z,20.80
2017-08-26T19:52:26.949Z,20.70
2017-08-26T19:54:55.566Z,20.60
2017-08-26T19:57:24.144Z,20.50
2017-08-26T19:59:52.643Z,20.50
2017-08-26T20:02:21.294Z,20.40
2017-08-26T20:04:49.972Z,20.30
2017-08-26T20:07:18.445Z,20.20
2017-08-26T20:09:47.139Z,20.10
2017-08-26T20:12:15.867Z,20.00
2017-08-26T20:14:44.591Z,19.80
2017-08-26T20:17:13.222Z,19.70
2017-08-26T20:19:41.955Z,19.60
2017-08-26T20:22:10.551Z,19.50
2017-08-26T20:24:39.196Z,19.50
2017-08-26T20:27:07.566Z,19.50
2017-08-26T20:29:35.883Z,19.50
2017-08-26T20:32:04.223Z,19.40
2017-08-26T20:34:32.540Z,19.40
2017-08-26T20:37:00.876Z,19.30
2017-08-26T20:39:29.193Z,19.30
2017-08-26T20:41:57.533Z,19.20
2017-08-26T20:44:25.852Z,19.10
2017-08-26T20:46:54.198Z,19.10
2017-08-26T20:49:22.530Z,19.00
2017-08-26T20:51:50.848Z,19.00
2017-08-26T20:54:19.187Z,18.90
2017-08-26T20:56:47.515Z,18.90
2017-08-26T20:59:15.870Z,18.90
2017-08-26T21:01:43.428Z,18.90
2017-08-26T21:04:11.779Z,18.90
2017-08-26T21:06:40.099Z,18.80
2017-08-26T21:09:08.768Z,18.90
2017-08-26T21:11:37.103Z,18.80
2017-08-26T21:14:05.458Z,18.80
2017-08-26T21:16:33.776Z,18.70
2017-08-26T21:19:02.097Z,18.60
2017-08-26T21:21:30.431Z,18.60
2017-08-26T21:23:58.739Z,18.50
2017-08-26T21:26:27.080Z,18.50
2017-08-26T21:28:55.398Z,18.50
2017-08-26T21:31:23.739Z,18.40
2017-08-26T21:33:52.073Z,18.40
2017-08-26T21:36:20.426Z,18.30
2017-08-26T21:38:48.744Z,18.20
2017-08-26T21:41:17.067Z,18.10
2017-08-26T21:43:45.403Z,18.20
2017-08-26T21:46:13.718Z,18.10
2017-08-26T21:48:42.066Z,18.10
2017-08-26T21:51:10.387Z,18.10
2017-08-26T21:53:38.739Z,18.00
2017-08-26T21:56:07.053Z,18.00
2017-08-26T21:58:35.392Z,17.90
2017-08-26T22:01:03.713Z,17.90
2017-08-26T22:03:32.053Z,17.90
2017-08-26T22:06:00.396Z,17.90
2017-08-26T22:08:28.737Z,17.90
2017-08-26T22:10:57.062Z,17.90
2017-08-26T22:13:25.404Z,17.80
2017-08-26T22:15:53.715Z,17.80
2017-08-26T22:18:22.029Z,17.80
2017-08-26T22:20:50.367Z,17.70
2017-08-26T22:23:18.682Z,17.60
2017-08-26T22:25:47.018Z,17.60
2017-08-26T22:28:15.335Z,17.50
2017-08-26T22:30:43.675Z,17.40
2017-08-26T22:33:11.998Z,17.40
2017-08-26T22:35:40.336Z,17.40
2017-08-26T22:38:08.650Z,17.40
2017-08-26T22:40:36.989Z,17.40
2017-08-26T22:43:05.307Z,17.40
2017-08-26T22:45:33.629Z,17.40
2017-08-26T22:48:01.969Z,17.40
2017-08-26T22:50:30.298Z,17.40
2017-08-26T22:52:58.636Z,17.40
2017-08-26T22:55:26.946Z,17.30
2017-08-26T22:57:56.267Z,17.30
2017-08-26T23:00:24.583Z,17.30
2017-08-26T23:02:52.923Z,17.20
2017-08-26T23:05:21.238Z,17.20
2017-08-26T23:07:49.587Z,17.20
2017-08-26T23:10:17.903Z,17.20
2017-08-26T23:12:46.224Z,17.10
2017-08-26T23:15:14.558Z,17.10
2017-08-26T23:17:42.876Z,17.10
2017-08-26T23:20:11.221Z,17.10
2017-08-26T23:22:39.544Z,17.10
2017-08-26T23:25:07.888Z,17.00
2017-08-26T23:27:36.200Z,17.00
2017-08-26T23:30:04.537Z,17.00
2017-08-26T23:32:32.866Z,16.90
2017-08-26T23:35:01.224Z,16.90
2017-08-26T23:37:29.539Z,16.80
2017-08-26T23:39:57.862Z,16.80
2017-08-26T23:42:26.205Z,16.70
2017-08-26T23:44:54.527Z,16.70
2017-08-26T23:47:22.867Z,16.70
2017-08-26T23:49:51.180Z,16.70
2017-08-26T23:52:19.527Z,16.60
2017-08-26T23:54:47.847Z,16.60
2017-08-26T23:57:16.178Z,16.60
2017-08-26T23:59:44.486Z,16.50
